Time;durP1;ratioP1;P1;durP2;ratioP2;P2;SDS_P1;SDS_P2;PMS_P1;PMS_P2;Temp;Humidity;BMP_temperature;BMP_pressure;BME280_temperature;BME280_humidity;BME280_pressure;Samples;Min_cycle;Max_cycle;Signal;HPM_P1;HPM_P2
2022/09/06 00:00:10;;;;;;;9.90;6.70;;;;;;;17.86;94.95;101512.50;6101199;23;20025;-75
2022/09/06 00:02:36;;;;;;;11.57;6.78;;;;;;;17.90;95.67;101522.59;6127210;23;20005;-74
2022/09/06 00:05:02;;;;;;;12.07;6.85;;;;;;;18.00;93.91;101538.34;6126804;23;20010;-74
2022/09/06 00:07:27;;;;;;;11.27;6.95;;;;;;;17.96;95.02;101534.31;6101619;23;20038;-75
2022/09/06 00:09:53;;;;;;;10.25;7.07;;;;;;;17.92;94.48;101538.97;6126960;23;20397;-74
2022/09/06 00:12:19;;;;;;;11.90;7.30;;;;;;;17.94;95.15;101557.97;6100758;23;20033;-75
2022/09/06 00:14:44;;;;;;;10.00;7.35;;;;;;;17.93;95.09;101598.13;6126842;23;20085;-74
2022/09/06 00:17:09;;;;;;;10.40;7.10;;;;;;;18.02;94.72;101628.72;6127058;23;20010;-74
2022/09/06 00:19:34;;;;;;;12.20;6.93;;;;;;;17.97;95.23;101620.41;6100477;23;20050;-75
2022/09/06 00:22:00;;;;;;;10.02;7.32;;;;;;;17.93;95.61;101623.41;6126765;23;20029;-77
2022/09/06 00:24:25;;;;;;;12.40;7.90;;;;;;;17.91;97.62;101688.06;6127125;23;20491;-80
2022/09/06 00:26:51;;;;;;;14.48;9.18;;;;;;;17.85;96.64;101696.38;6126700;23;20041;-76
2022/09/06 00:29:16;;;;;;;14.07;9.68;;;;;;;17.70;96.75;101701.88;6126783;23;20006;-80
2022/09/06 00:31:41;;;;;;;14.82;10.60;;;;;;;17.66;96.77;101694.34;6126818;23;20009;-79
2022/09/06 00:34:06;;;;;;;16.88;10.68;;;;;;;17.80;97.26;101711.56;6126511;23;20028;-77
2022/09/06 00:36:32;;;;;;;14.73;10.13;;;;;;;17.70;96.82;101708.88;6126656;23;20337;-79
2022/09/06 00:38:57;;;;;;;14.65;10.07;;;;;;;17.76;96.93;101716.22;6126566;23;20145;-78
2022/09/06 00:41:23;;;;;;;15.57;10.95;;;;;;;17.74;96.06;101711.13;6126834;23;20412;-78
2022/09/06 00:43:48;;;;;;;13.63;10.13;;;;;;;17.81;96.04;101708.03;6126553;23;20002;-73
2022/09/06 00:46:17;;;;;;;16.13;10.23;;;;;;;17.63;96.84;101695.44;6126545;23;20009;-78
2022/09/06 00:48:46;;;;;;;13.25;10.32;;;;;;;17.74;96.55;101700.66;6126965;23;20032;-78
2022/09/06 00:51:13;;;;;;;15.50;10.90;;;;;;;17.81;96.80;101711.47;6100452;23;20041;-73
2022/09/06 00:53:39;;;;;;;15.32;11.13;;;;;;;17.85;96.60;101704.22;6126715;23;20029;-78
2022/09/06 00:56:04;;;;;;;14.85;11.23;;;;;;;17.75;96.72;101696.28;6126604;23;20421;-77
2022/09/06 00:58:30;;;;;;;15.80;11.40;;;;;;;17.80;96.78;101688.06;6126593;23;20016;-77
2022/09/06 01:00:55;;;;;;;15.43;10.88;;;;;;;17.81;97.10;101672.28;6126582;23;20427;-75
2022/09/06 01:03:23;;;;;;;15.82;11.27;;;;;;;17.83;97.78;101672.16;6126603;23;20008;-74
2022/09/06 01:05:57;;;;;;;14.85;10.25;;;;;;;17.83;98.61;101672.97;6126290;23;20002;-78
2022/09/06 01:08:47;;;;;;;17.65;11.75;;;;;;;17.78;97.66;101662.06;6126767;23;20002;-74
2022/09/06 01:11:42;;;;;;;14.93;10.95;;;;;;;17.74;98.32;101650.19;6126722;23;20056;-80
2022/09/06 01:14:43;;;;;;;18.95;11.57;;;;;;;17.71;97.64;101658.28;5980458;24;20015;-77
2022/09/06 01:17:27;;;;;;;16.35;11.10;;;;;;;17.65;97.94;101654.34;5980683;24;20086;-78
2022/09/06 01:20:20;;;;;;;15.45;11.60;;;;;;;17.67;98.36;101654.22;5980736;24;20008;-78
2022/09/06 01:23:04;;;;;;;15.32;11.70;;;;;;;17.66;98.48;101642.13;5980721;24;20016;-75
2022/09/06 01:25:41;;;;;;;18.17;12.25;;;;;;;17.63;99.07;101637.97;5980815;24;20362;-75
2022/09/06 01:28:31;;;;;;;17.30;12.00;;;;;;;17.49;99.16;101605.09;5980316;24;20072;-77
2022/09/06 01:31:27;;;;;;;17.83;11.50;;;;;;;17.64;99.79;101612.69;5980738;24;20068;-73
2022/09/06 01:34:04;;;;;;;17.73;11.70;;;;;;;17.58;99.45;101593.09;5980756;24;20019;-75
2022/09/06 01:36:43;;;;;;;17.20;12.05;;;;;;;17.46;99.63;101568.81;5980815;24;20012;-75
2022/09/06 01:39:22;;;;;;;16.67;11.45;;;;;;;17.31;100.00;101538.72;5980498;24;20028;-74
2022/09/06 01:41:49;;;;;;;18.38;11.88;;;;;;;17.13;100.00;101491.41;5980542;24;20036;-74
2022/09/06 01:44:14;;;;;;;18.25;12.73;;;;;;;17.15;100.00;101467.78;5956536;24;20483;-76
2022/09/06 01:47:12;;;;;;;15.68;12.02;;;;;;;17.28;100.00;101485.91;5982132;24;20012;-75
2022/09/06 01:50:08;;;;;;;18.30;11.57;;;;;;;17.24;100.00;101469.66;5982792;24;20008;-74
2022/09/06 01:52:49;;;;;;;15.40;11.23;;;;;;;17.27;99.82;101473.81;6128190;23;20033;-74
2022/09/06 01:55:26;;;;;;;15.90;11.23;;;;;;;17.32;99.84;101471.66;6128381;23;20034;-75
2022/09/06 01:58:19;;;;;;;13.90;10.35;;;;;;;17.29;99.08;101466.69;6127802;23;20044;-74
2022/09/06 02:00:51;;;;;;;13.82;11.13;;;;;;;17.40;98.35;101471.84;6128454;23;20016;-74
2022/09/06 02:03:38;;;;;;;22.85;10.82;;;;;;;17.43;98.32;101474.22;6128512;23;20034;-74
2022/09/06 02:06:13;;;;;;;14.63;11.02;;;;;;;17.42;97.64;101462.97;6128194;23;20006;-73
2022/09/06 02:08:43;;;;;;;15.65;10.70;;;;;;;17.45;97.91;101465.31;6128164;23;20428;-74
2022/09/06 02:11:09;;;;;;;15.03;11.13;;;;;;;17.36;97.64;101457.41;6127925;23;20010;-74
2022/09/06 02:13:51;;;;;;;12.70;10.00;;;;;;;17.42;97.74;101469.97;6127919;23;20056;-73
2022/09/06 02:16:24;;;;;;;14.25;10.85;;;;;;;17.38;97.05;101461.53;6128081;23;20068;-73
2022/09/06 02:18:59;;;;;;;14.20;10.80;;;;;;;17.42;98.18;101470.78;6128166;23;20010;-73
2022/09/06 02:21:29;;;;;;;15.88;10.98;;;;;;;17.40;97.64;101461.41;6128210;23;20041;-73
2022/09/06 02:23:58;;;;;;;12.95;10.77;;;;;;;17.37;98.00;101459.88;6127685;23;19998;-74
2022/09/06 02:26:28;;;;;;;14.85;10.93;;;;;;;17.23;97.94;101444.53;6128209;23;20006;-73
2022/09/06 02:28:54;;;;;;;14.63;11.23;;;;;;;17.28;98.35;101467.63;6127775;23;20001;-73
2022/09/06 02:31:25;;;;;;;16.58;11.85;;;;;;;17.34;99.06;101498.47;6127879;23;20344;-73
2022/09/06 02:33:50;;;;;;;15.90;12.05;;;;;;;17.35;100.00;101521.00;6127916;23;20085;-74
2022/09/06 02:36:17;;;;;;;16.70;11.48;;;;;;;17.24;99.75;101497.56;6127711;23;20033;-73
2022/09/06 02:38:43;;;;;;;17.48;11.70;;;;;;;17.31;99.59;101493.50;6127326;23;20436;-73
2022/09/06 02:41:09;;;;;;;16.02;11.25;;;;;;;17.25;99.77;101502.66;6127675;23;20005;-74
2022/09/06 02:43:35;;;;;;;15.95;11.88;;;;;;;17.26;99.83;101498.25;6127626;23;20002;-73
2022/09/06 02:46:00;;;;;;;15.88;11.43;;;;;;;17.14;99.98;101479.19;6128042;23;20029;-74
2022/09/06 02:48:26;;;;;;;14.38;11.25;;;;;;;17.19;99.93;101490.91;6127672;23;20006;-73
2022/09/06 02:50:51;;;;;;;16.55;11.88;;;;;;;17.12;100.00;101481.94;6127613;23;20002;-73
2022/09/06 02:53:16;;;;;;;15.98;12.30;;;;;;;17.08;100.00;101484.88;6127595;23;20368;-73
2022/09/06 02:55:42;;;;;;;15.57;11.68;;;;;;;17.02;100.00;101482.78;6127461;23;20041;-71
2022/09/06 02:58:10;;;;;;;16.88;12.05;;;;;;;16.96;100.00;101483.28;6127465;23;20097;-73
2022/09/06 03:00:36;;;;;;;17.35;12.57;;;;;;;16.94;100.00;101487.78;6127323;23;20013;-74
2022/09/06 03:03:02;;;;;;;15.23;11.70;;;;;;;16.83;100.00;101488.63;6127549;23;20006;-73
2022/09/06 03:05:28;;;;;;;14.73;11.50;;;;;;;16.76;100.00;101471.81;6127598;23;20102;-73
2022/09/06 03:07:55;;;;;;;17.48;13.02;;;;;;;16.77;100.00;101479.50;6127691;23;20010;-73
2022/09/06 03:10:23;;;;;;;16.30;13.05;;;;;;;16.74;100.00;101473.69;6127891;23;20327;-73
2022/09/06 03:12:49;;;;;;;16.67;13.07;;;;;;;16.55;100.00;101453.41;6127710;23;20006;-73
2022/09/06 03:15:15;;;;;;;17.90;13.43;;;;;;;16.54;100.00;101456.97;6127257;23;20417;-73
2022/09/06 03:17:41;;;;;;;17.67;13.43;;;;;;;16.63;100.00;101477.94;6127689;23;20408;-73
2022/09/06 03:20:08;;;;;;;17.77;13.82;;;;;;;16.61;100.00;101477.22;6127277;23;20010;-74
2022/09/06 03:22:34;;;;;;;16.33;13.50;;;;;;;16.56;100.00;101460.28;6127252;23;20002;-72
2022/09/06 03:24:59;;;;;;;21.75;14.30;;;;;;;16.66;100.00;101471.66;6127491;23;20081;-72
2022/09/06 03:27:25;;;;;;;18.98;13.90;;;;;;;16.57;100.00;101459.34;6127805;23;20081;-75
2022/09/06 03:29:50;;;;;;;17.13;13.65;;;;;;;16.64;100.00;101470.97;6127175;23;20028;-72
2022/09/06 03:32:15;;;;;;;17.52;14.25;;;;;;;16.60;100.00;101469.53;6127213;23;20010;-74
2022/09/06 03:34:41;;;;;;;16.33;13.52;;;;;;;16.51;100.00;101468.47;6127423;23;20010;-74
2022/09/06 03:37:06;;;;;;;15.18;13.13;;;;;;;16.44;100.00;101469.91;6127129;23;20033;-74
2022/09/06 03:39:31;;;;;;;16.13;13.90;;;;;;;16.47;100.00;101487.06;6127201;23;20002;-73
2022/09/06 03:41:57;;;;;;;16.33;13.27;;;;;;;16.28;100.00;101466.81;6127515;23;20006;-76
2022/09/06 03:44:23;;;;;;;16.50;13.93;;;;;;;16.35;100.00;101489.69;6101099;23;20006;-72
2022/09/06 03:46:50;;;;;;;17.52;14.68;;;;;;;16.32;100.00;101484.72;6127459;23;20412;-72
2022/09/06 03:49:15;;;;;;;14.98;13.15;;;;;;;16.19;100.00;101472.72;6127305;23;20060;-73
2022/09/06 03:51:40;;;;;;;18.08;14.07;;;;;;;16.19;100.00;101481.38;6127215;23;20010;-73
2022/09/06 03:54:05;;;;;;;17.50;13.93;;;;;;;16.12;100.00;101484.53;6127310;23;20443;-73
2022/09/06 03:56:31;;;;;;;19.48;14.75;;;;;;;16.07;100.00;101482.31;6127108;23;20002;-72
2022/09/06 03:58:56;;;;;;;18.75;13.90;;;;;;;15.88;100.00;101466.41;6127015;23;20014;-74
2022/09/06 04:01:21;;;;;;;18.33;14.38;;;;;;;16.00;100.00;101492.34;6127189;23;20471;-74
2022/09/06 04:03:47;;;;;;;18.33;14.00;;;;;;;15.86;100.00;101481.31;6126880;23;20013;-73
2022/09/06 04:06:12;;;;;;;17.25;14.02;;;;;;;15.85;100.00;101492.69;6126967;23;20033;-74
2022/09/06 04:08:38;;;;;;;15.95;12.80;;;;;;;15.78;100.00;101495.72;6126675;23;20037;-73
2022/09/06 04:11:05;;;;;;;21.05;14.63;;;;;;;15.77;100.00;101494.06;6127183;23;20002;-73
2022/09/06 04:13:31;;;;;;;16.35;13.60;;;;;;;15.72;100.00;101490.13;6126925;23;20016;-72
2022/09/06 04:15:57;;;;;;;15.60;12.82;;;;;;;15.64;100.00;101490.72;6126923;23;20006;-72
2022/09/06 04:18:23;;;;;;;17.15;13.68;;;;;;;15.62;100.00;101490.00;6126593;23;20424;-72
2022/09/06 04:20:51;;;;;;;18.77;13.85;;;;;;;15.56;100.00;101494.81;6127029;23;20006;-72
2022/09/06 04:23:17;;;;;;;20.35;12.93;;;;;;;15.53;100.00;101488.03;6126781;23;20010;-72
2022/09/06 04:25:51;;;;;;;17.50;13.88;;;;;;;15.48;100.00;101492.75;6126739;23;20006;-72
2022/09/06 04:28:17;;;;;;;15.77;13.40;;;;;;;15.34;100.00;101482.50;6126846;23;20002;-72
2022/09/06 04:30:44;;;;;;;16.35;13.55;;;;;;;15.43;100.00;101507.84;6126694;23;20078;-73
2022/09/06 04:33:09;;;;;;;18.02;14.43;;;;;;;15.37;100.00;101509.16;6126924;23;20006;-73
2022/09/06 04:35:35;;;;;;;18.20;14.60;;;;;;;15.33;100.00;101512.06;6126729;23;20012;-73
2022/09/06 04:38:01;;;;;;;19.10;15.23;;;;;;;15.30;100.00;101518.34;6126304;23;20020;-73
2022/09/06 04:40:27;;;;;;;18.40;15.38;;;;;;;15.14;100.00;101491.75;6126513;23;20428;-73
2022/09/06 04:42:52;;;;;;;17.83;15.40;;;;;;;15.26;100.00;101513.47;6126628;23;20009;-75
2022/09/06 04:45:17;;;;;;;19.05;16.08;;;;;;;15.21;100.00;101517.22;6126252;23;20009;-73
2022/09/06 04:47:43;;;;;;;23.63;17.30;;;;;;;15.21;100.00;101508.59;6127004;23;20006;-74
2022/09/06 04:50:08;;;;;;;21.30;17.75;;;;;;;15.12;100.00;101497.06;6126498;23;20068;-73
2022/09/06 04:52:33;;;;;;;26.05;18.60;;;;;;;15.21;100.00;101519.00;6100423;23;20006;-76
2022/09/06 04:54:59;;;;;;;24.00;17.65;;;;;;;15.19;100.00;101506.09;6126595;23;20006;-73
2022/09/06 04:57:24;;;;;;;21.50;18.02;;;;;;;15.21;100.00;101513.78;6126717;23;20006;-76
2022/09/06 04:59:50;;;;;;;22.13;17.95;;;;;;;15.13;100.00;101500.47;6126366;23;20002;-74
2022/09/06 05:02:15;;;;;;;23.48;18.20;;;;;;;15.06;100.00;101491.47;6126569;23;20006;-76
2022/09/06 05:04:40;;;;;;;20.23;16.63;;;;;;;15.15;100.00;101517.66;6126742;23;20005;-76
2022/09/06 05:07:07;;;;;;;20.95;17.08;;;;;;;15.00;100.00;101494.50;6126719;23;20006;-77
2022/09/06 05:09:33;;;;;;;20.42;16.95;;;;;;;15.13;100.00;101516.09;6126669;23;20072;-76
2022/09/06 05:11:59;;;;;;;19.23;17.05;;;;;;;15.14;100.00;101512.56;6126446;23;20002;-77
2022/09/06 05:14:25;;;;;;;20.58;17.83;;;;;;;15.11;100.00;101510.19;6126600;23;19997;-80
2022/09/06 05:16:51;;;;;;;21.02;17.33;;;;;;;15.13;100.00;101513.50;6126520;23;20006;-83
2022/09/06 05:19:16;;;;;;;19.30;16.90;;;;;;;15.09;100.00;101515.50;6126244;23;20161;-83
2022/09/06 05:21:42;;;;;;;24.77;17.48;;;;;;;15.12;100.00;101512.66;6100996;23;20302;-77
2022/09/06 05:24:07;;;;;;;22.00;17.48;;;;;;;15.01;100.00;101491.78;6126406;23;20010;-77
2022/09/06 05:26:33;;;;;;;21.63;17.45;;;;;;;14.82;100.00;101453.25;6126631;23;20006;-78
2022/09/06 05:28:58;;;;;;;21.70;18.00;;;;;;;15.18;100.00;101517.44;6126692;23;20002;-78
2022/09/06 05:31:27;;;;;;;22.05;17.95;;;;;;;15.13;100.00;101514.31;6126764;23;20029;-76
2022/09/06 05:33:53;;;;;;;21.95;18.13;;;;;;;15.21;100.00;101508.59;6126708;23;20324;-77
2022/09/06 05:36:19;;;;;;;19.70;16.98;;;;;;;15.05;100.00;101488.06;6126585;23;20060;-76
2022/09/06 05:38:44;;;;;;;21.98;18.10;;;;;;;15.35;100.00;101529.25;6126023;23;20048;-78
2022/09/06 05:41:09;;;;;;;22.33;18.92;;;;;;;15.38;100.00;101520.38;6126097;23;20002;-76
2022/09/06 05:43:35;;;;;;;23.00;18.90;;;;;;;15.26;100.00;101498.69;6126697;23;20006;-78
2022/09/06 05:46:00;;;;;;;22.88;18.38;;;;;;;15.33;100.00;101496.44;6126331;23;20002;-77
2022/09/06 05:48:25;;;;;;;22.85;17.98;;;;;;;15.36;100.00;101496.25;6126087;23;20006;-76
2022/09/06 05:51:02;;;;;;;24.55;19.73;;;;;;;15.65;100.00;101528.84;6126549;23;20002;-76
2022/09/06 05:53:33;;;;;;;22.52;18.33;;;;;;;15.69;100.00;101532.03;6126244;23;20476;-76
2022/09/06 05:55:58;;;;;;;23.98;20.20;;;;;;;15.66;100.00;101516.66;6126355;23;20364;-77
2022/09/06 05:58:24;;;;;;;24.13;20.30;;;;;;;15.68;100.00;101506.94;6125986;23;20010;-78
2022/09/06 06:00:49;;;;;;;24.10;20.38;;;;;;;15.75;100.00;101505.56;6099509;23;20010;-76
2022/09/06 06:03:14;;;;;;;25.58;20.35;;;;;;;16.02;100.00;101536.50;6125946;23;19998;-76
2022/09/06 06:05:44;;;;;;;27.33;22.35;;;;;;;16.12;100.00;101531.44;6126313;23;20013;-74
2022/09/06 06:08:10;;;;;;;24.88;21.20;;;;;;;16.26;100.00;101531.25;6124870;23;20428;-72
2022/09/06 06:10:38;;;;;;;29.65;22.13;;;;;;;16.36;100.00;101527.00;6125769;23;20057;-72
2022/09/06 06:13:03;;;;;;;25.52;21.55;;;;;;;16.72;100.00;101518.16;6126265;23;20017;-71
2022/09/06 06:15:28;;;;;;;26.48;20.48;;;;;;;17.13;100.00;101527.94;6126117;23;20073;-72
2022/09/06 06:17:54;;;;;;;23.65;18.77;;;;;;;17.52;98.30;101530.09;6126044;23;20420;-73
2022/09/06 06:20:19;;;;;;;22.73;18.02;;;;;;;18.03;95.74;101533.69;6126292;23;20081;-71
2022/09/06 06:22:44;;;;;;;21.10;17.77;;;;;;;18.27;93.80;101527.34;6125795;23;20428;-74
2022/09/06 06:25:10;;;;;;;20.88;17.48;;;;;;;19.13;91.12;101510.34;6125955;23;20002;-75
2022/09/06 06:27:35;;;;;;;16.30;14.45;;;;;;;20.74;82.95;101531.38;6126084;23;20088;-73
2022/09/06 06:30:01;;;;;;;16.45;13.80;;;;;;;22.19;75.47;101526.88;6126181;23;20009;-74
2022/09/06 06:32:26;;;;;;;19.90;12.93;;;;;;;23.28;70.22;101519.06;6127253;23;20006;-74
2022/09/06 06:34:52;;;;;;;12.90;9.43;;;;;;;24.37;65.02;101522.16;6127627;23;20002;-77
2022/09/06 06:37:17;;;;;;;12.00;8.20;;;;;;;25.16;61.45;101515.03;6127371;23;20010;-77
2022/09/06 06:39:42;;;;;;;12.60;9.82;;;;;;;25.69;58.84;101515.97;6127638;23;20013;-79
2022/09/06 06:42:08;;;;;;;11.98;7.82;;;;;;;26.22;56.83;101511.50;6127755;23;20014;-75
2022/09/06 06:44:33;;;;;;;12.50;7.90;;;;;;;26.52;55.65;101483.19;6127827;23;20012;-80
2022/09/06 06:47:01;;;;;;;10.00;6.85;;;;;;;26.92;53.32;101467.75;6101058;23;20417;-80
2022/09/06 06:49:27;;;;;;;11.48;7.53;;;;;;;27.43;51.97;101511.72;6127987;23;20010;-80
2022/09/06 06:51:52;;;;;;;9.80;6.88;;;;;;;27.50;51.54;101495.84;6127822;23;20082;-79
2022/09/06 06:54:17;;;;;;;13.30;8.38;;;;;;;27.55;50.86;101493.47;6127593;23;20520;-81
2022/09/06 06:56:44;;;;;;;18.13;9.63;;;;;;;27.38;51.01;101466.38;6127478;23;20002;-79
2022/09/06 06:59:09;;;;;;;13.00;9.45;;;;;;;27.52;50.61;101448.72;6127739;23;20097;-85
2022/09/06 07:01:44;;;;;;;13.52;9.05;;;;;;;27.70;51.59;101435.81;6127419;23;20037;-84
2022/09/06 07:08:08;;;;;;;12.45;8.45;;;;;;;24.52;57.96;101459.75;6127236;23;20021;-80
2022/09/06 07:11:02;;;;;;;12.90;9.52;;;;;;;23.72;60.81;101522.28;6127733;23;20009;-79
2022/09/06 07:13:28;;;;;;;17.77;11.18;;;;;;;21.88;65.01;101387.94;6043911;23;20016;-81
2022/09/06 07:16:28;;;;;;;13.77;11.45;;;;;;;22.12;67.55;101520.56;6127745;23;20005;-80
2022/09/06 07:19:00;;;;;;;13.88;10.45;;;;;;;21.43;69.84;101486.22;6127238;23;20009;-79
2022/09/06 07:21:38;;;;;;;16.42;12.50;;;;;;;21.20;71.46;101501.53;6127479;23;20440;-79
2022/09/06 07:24:08;;;;;;;13.07;9.27;;;;;;;20.25;73.36;101383.84;6127642;23;20002;-78
2022/09/06 07:26:35;;;;;;;16.20;13.20;;;;;;;20.37;75.32;101444.00;6127413;23;20006;-79
2022/09/06 07:29:07;;;;;;;15.57;11.52;;;;;;;19.85;76.09;101384.16;6127413;23;20438;-79
2022/09/06 07:32:15;;;;;;;13.52;11.15;;;;;;;20.57;76.14;101505.94;6127214;23;20450;-78
2022/09/06 07:34:59;;;;;;;14.95;11.50;;;;;;;20.05;77.08;101440.78;6127287;23;20010;-79
2022/09/06 07:37:30;;;;;;;16.00;13.55;;;;;;;19.73;77.96;101398.41;6126251;23;20029;-78
2022/09/06 07:39:56;;;;;;;16.40;12.60;;;;;;;19.99;78.80;101440.56;6111377;23;20019;-79
2022/09/06 07:42:23;;;;;;;16.27;11.70;;;;;;;20.38;78.56;101505.97;6097831;23;20010;-78
2022/09/06 07:44:52;;;;;;;18.10;13.32;;;;;;;20.26;79.32;101508.78;6097830;23;20013;-74
2022/09/06 07:47:18;;;;;;;17.55;11.38;;;;;;;20.16;79.93;101481.75;6097580;23;20017;-77
2022/09/06 07:49:43;;;;;;;14.60;11.55;;;;;;;20.30;79.51;101496.19;6097609;23;20002;-79
2022/09/06 07:52:08;;;;;;;14.40;11.85;;;;;;;20.24;79.58;101488.91;6097799;23;20302;-76
2022/09/06 07:54:34;;;;;;;18.70;13.00;;;;;;;20.41;79.27;101511.75;6097877;23;20003;-77
2022/09/06 07:56:59;;;;;;;15.60;11.80;;;;;;;20.49;79.44;101506.66;6097895;23;20006;-77
2022/09/06 07:59:24;;;;;;;16.73;10.07;;;;;;;20.55;78.69;101503.47;6096339;23;20003;-78
2022/09/06 08:01:52;;;;;;;14.55;10.82;;;;;;;20.57;78.69;101501.50;6097967;23;20016;-74
2022/09/06 08:04:17;;;;;;;14.93;10.32;;;;;;;20.63;78.89;101498.28;6097837;23;20026;-77
2022/09/06 08:06:47;;;;;;;15.77;9.93;;;;;;;20.61;78.46;101481.88;6097678;23;20006;-81
2022/09/06 08:09:13;;;;;;;13.80;9.48;;;;;;;20.78;78.19;101492.56;6097750;23;20013;-80
2022/09/06 08:11:39;;;;;;;14.90;9.45;;;;;;;20.61;77.58;101457.44;6097954;23;20387;-80
2022/09/06 08:14:06;;;;;;;11.40;8.40;;;;;;;20.87;76.57;101491.69;6097688;23;20002;-89
2022/09/06 08:16:33;;;;;;;12.93;8.40;;;;;;;20.94;76.60;101487.47;6097529;23;20006;-80
2022/09/06 08:19:00;;;;;;;11.15;9.15;;;;;;;21.06;78.62;101490.75;6097896;23;20123;-83
2022/09/06 08:21:29;;;;;;;12.65;8.80;;;;;;;21.15;77.85;101472.28;6097558;23;20002;-85
2022/09/06 08:23:59;;;;;;;10.43;7.55;;;;;;;21.37;74.62;101481.53;6097882;23;20054;-80
2022/09/06 08:26:27;;;;;;;11.50;7.80;;;;;;;21.57;74.30;101486.63;6097552;23;20429;-85
2022/09/06 08:28:58;;;;;;;8.80;7.13;;;;;;;21.64;73.68;101495.56;6097728;23;20026;-86
2022/09/06 08:31:25;;;;;;;12.30;7.07;;;;;;;21.68;73.16;101466.19;6097811;23;20010;-85
2022/09/06 08:33:51;;;;;;;11.32;7.63;;;;;;;21.99;73.09;101469.19;6097199;23;20010;-83
2022/09/06 08:36:17;;;;;;;10.30;6.88;;;;;;;22.30;71.05;101490.59;6097504;23;20002;-78
2022/09/06 08:38:43;;;;;;;9.35;7.00;;;;;;;22.46;69.84;101483.75;6097742;23;20006;-81
2022/09/06 08:41:13;;;;;;;10.63;7.05;;;;;;;22.53;70.39;101490.06;6095683;23;20041;-84
2022/09/06 08:43:51;;;;;;;13.52;7.40;;;;;;;22.07;69.99;101417.66;6097482;23;20003;-77
2022/09/06 08:46:17;;;;;;;13.65;7.30;;;;;;;22.52;69.64;101486.59;6097368;23;20006;-81
2022/09/06 08:48:43;;;;;;;10.18;6.22;;;;;;;22.40;69.47;101458.88;6097365;23;20026;-80
2022/09/06 08:51:20;;;;;;;9.52;6.05;;;;;;;22.50;69.31;101479.81;6097376;23;20010;-79
2022/09/06 08:53:47;;;;;;;8.82;5.15;;;;;;;22.42;69.67;101483.25;6097040;23;20046;-78
2022/09/06 08:56:56;;;;;;;8.05;4.25;;;;;;;22.48;70.15;101485.25;6097603;23;20014;-76
2022/09/06 08:59:22;;;;;;;9.57;5.82;;;;;;;22.48;69.23;101481.78;6097530;23;20066;-76
2022/09/06 09:02:05;;;;;;;8.57;5.32;;;;;;;22.50;70.52;101474.56;6097497;23;20007;-76
2022/09/06 09:04:33;;;;;;;7.25;4.53;;;;;;;22.46;68.45;101483.75;6097245;23;20381;-76
2022/09/06 09:07:28;;;;;;;6.70;3.42;;;;;;;22.52;68.07;101489.22;6097133;23;20003;-78
2022/09/06 09:09:56;;;;;;;8.95;3.75;;;;;;;22.59;68.10;101486.75;6092682;23;20010;-74
2022/09/06 09:12:23;;;;;;;7.72;3.50;;;;;;;22.39;66.65;101451.97;6097325;23;20077;-75
2022/09/06 09:14:58;;;;;;;6.22;3.60;;;;;;;22.51;66.60;101466.50;6097495;23;20006;-82
2022/09/06 09:17:31;;;;;;;6.72;4.03;;;;;;;22.49;67.21;101449.22;6097249;23;20011;-75
2022/09/06 09:19:57;;;;;;;8.07;3.90;;;;;;;22.68;67.49;101474.47;6096923;23;20002;-79
2022/09/06 09:22:24;;;;;;;8.88;3.97;;;;;;;22.64;67.25;101466.06;6097127;23;20030;-75
2022/09/06 09:24:51;;;;;;;6.53;4.07;;;;;;;22.64;66.12;101470.50;6097329;23;20086;-80
2022/09/06 09:27:21;;;;;;;8.20;3.90;;;;;;;22.67;67.80;101459.66;6097428;23;20002;-75
2022/09/06 09:29:52;;;;;;;8.25;3.55;;;;;;;22.77;68.13;101471.69;6097143;23;20011;-76
2022/09/06 09:32:30;;;;;;;7.82;4.07;;;;;;;22.84;67.38;101464.00;6097355;23;20011;-74
2022/09/06 09:35:18;;;;;;;10.05;4.28;;;;;;;22.84;66.79;101467.47;6096803;23;20010;-73
2022/09/06 09:37:44;;;;;;;8.77;4.40;;;;;;;22.86;66.18;101472.56;6097004;23;20063;-76
2022/09/06 09:40:49;;;;;;;6.18;3.65;;;;;;;22.98;67.42;101488.88;6104667;23;20496;-71
2022/09/06 09:43:20;;;;;;;8.48;4.20;;;;;;;22.84;66.49;101469.28;6123285;23;20014;-72
2022/09/06 09:45:45;;;;;;;10.15;4.38;;;;;;;22.94;66.29;101485.75;6126562;23;20037;-73
2022/09/06 09:48:26;;;;;;;9.60;4.38;;;;;;;22.92;67.07;101477.22;6100415;23;20005;-77
2022/09/06 09:50:52;;;;;;;9.45;4.75;;;;;;;23.04;67.42;101477.72;6125946;23;19998;-73
2022/09/06 09:53:21;;;;;;;8.35;4.40;;;;;;;23.07;65.45;101478.22;6126444;23;20030;-74
2022/09/06 09:55:47;;;;;;;8.95;4.95;;;;;;;23.15;67.04;101474.75;6126604;23;20002;-71
2022/09/06 09:58:32;;;;;;;7.78;4.65;;;;;;;23.15;66.76;101465.06;6126156;23;20013;-74
2022/09/06 10:01:25;;;;;;;7.68;3.88;;;;;;;23.28;65.86;101469.81;6126534;23;20006;-74
2022/09/06 10:03:51;;;;;;;7.80;4.45;;;;;;;23.35;65.61;101475.28;6126135;23;20002;-72
2022/09/06 10:06:25;;;;;;;6.72;3.80;;;;;;;23.45;65.87;101468.84;6126516;23;20014;-72
2022/09/06 10:08:50;;;;;;;8.20;4.53;;;;;;;23.36;64.23;101459.28;6127961;23;20077;-74
2022/09/06 10:11:40;;;;;;;6.18;4.30;;;;;;;23.40;64.83;101471.16;6128466;23;20045;-73
2022/09/06 10:14:29;;;;;;;7.60;4.07;;;;;;;23.42;65.39;101474.47;6128090;23;20025;-73
2022/09/06 10:16:56;;;;;;;10.07;4.35;;;;;;;23.51;66.06;101470.00;6128004;23;20506;-72
2022/09/06 10:19:29;;;;;;;9.95;4.40;;;;;;;23.36;64.33;101442.66;6128126;23;20340;-73
2022/09/06 10:22:02;;;;;;;8.18;4.90;;;;;;;23.60;64.53;101479.59;6127640;23;20010;-73
2022/09/06 10:24:49;;;;;;;7.78;4.32;;;;;;;23.68;65.04;101487.47;6127892;23;20006;-73
2022/09/06 10:27:21;;;;;;;9.50;4.10;;;;;;;23.83;64.84;101494.72;6101320;23;20340;-77
2022/09/06 10:30:07;;;;;;;9.27;4.65;;;;;;;23.85;64.35;101476.91;6101913;23;20084;-73
2022/09/06 10:32:53;;;;;;;8.77;4.72;;;;;;;23.98;65.04;101488.59;6128133;23;20006;-73
2022/09/06 10:35:23;;;;;;;9.10;4.20;;;;;;;24.05;63.96;101488.75;6127887;23;20006;-73
2022/09/06 10:38:07;;;;;;;7.55;4.50;;;;;;;24.02;63.11;101491.72;6128082;23;20080;-73
2022/09/06 10:40:44;;;;;;;8.82;4.70;;;;;;;24.01;62.64;101487.44;6127672;23;20021;-71
2022/09/06 10:43:17;;;;;;;11.48;4.82;;;;;;;24.04;62.35;101485.28;6127855;23;20030;-73
2022/09/06 10:45:51;;;;;;;9.38;4.88;;;;;;;24.06;63.12;101484.28;6128067;23;20005;-73
2022/09/06 10:48:26;;;;;;;11.63;5.90;;;;;;;24.04;61.80;101482.66;6127844;23;20416;-72
2022/09/06 10:51:10;;;;;;;9.63;5.63;;;;;;;24.14;62.83;101471.91;6127198;23;20014;-71
2022/09/06 10:54:05;;;;;;;9.05;5.20;;;;;;;24.13;63.49;101453.59;6127810;23;20084;-70
2022/09/06 10:56:33;;;;;;;12.55;5.65;;;;;;;24.25;62.48;101463.63;6127964;23;20064;-70
2022/09/06 10:59:06;;;;;;;9.13;4.90;;;;;;;24.31;63.08;101475.34;6127634;23;20009;-71
2022/09/06 11:01:53;;;;;;;13.75;6.07;;;;;;;24.19;62.31;101461.69;6127612;23;20006;-71
2022/09/06 11:04:47;;;;;;;10.20;6.47;;;;;;;24.13;62.82;101469.44;6127409;23;20328;-73
2022/09/06 11:07:36;;;;;;;13.45;5.70;;;;;;;24.00;63.68;101472.63;6122195;23;20010;-74
2022/09/06 11:10:27;;;;;;;8.95;5.70;;;;;;;23.93;62.61;101476.91;6127585;23;20009;-72
2022/09/06 11:13:09;;;;;;;10.45;5.82;;;;;;;24.06;63.74;101471.09;6106599;23;20372;-73
2022/09/06 11:15:58;;;;;;;10.85;5.78;;;;;;;24.25;63.73;101481.28;6127703;23;20298;-73
2022/09/06 11:18:44;;;;;;;12.07;6.30;;;;;;;24.40;62.98;101484.88;6126785;23;20420;-74
2022/09/06 11:21:33;;;;;;;12.10;6.75;;;;;;;24.40;63.15;101487.53;6127270;23;20002;-73
2022/09/06 11:24:34;;;;;;;10.38;5.57;;;;;;;24.37;63.24;101489.66;6127477;23;20013;-73
2022/09/06 11:27:26;;;;;;;9.10;5.50;;;;;;;24.44;63.72;101501.19;5981970;24;20008;-74
2022/09/06 11:29:56;;;;;;;11.20;6.32;;;;;;;24.67;63.19;101496.78;5981608;24;20448;-73
2022/09/06 11:32:33;;;;;;;10.70;6.00;;;;;;;24.76;62.04;101500.22;5981514;24;20008;-73